LFML/MRS METAR and TAF weather

Enter ICAO airport designator
Station Type Date Time Source
LFML METAR 2020/04/03 06:30 UTC NOAA

LFML 030630Z AUTO VRB02KT CAVOK 06/04 Q1013 NOSIG


Station Type Date Time Source
LFML Decoded METAR 2020/04/03 06:30 UTC NOAA

Marseille / Marignane, France (LFML) 43-27N 005-14E 36M
Apr 03, 2020 - 02:30 AM EDT / 2020.04.03 0630 UTC
Wind: Variable at 2 MPH (2 KT):0
Visibility: greater than 7 mile(s):0
Temperature: 42 F (6 C)
Dew Point: 39 F (4 C)
Relative Humidity: 86%
Pressure (altimeter): 29.91 in. Hg (1013 hPa)
ob: LFML 030630Z AUTO VRB02KT CAVOK 06/04 Q1013 NOSIG
cycle: 6

Station Type Date Time Source
LFML TAF 2020/04/03 03:42 UTC NOAA

TAF TAF LFML 030200Z 0303/0409 VRB03KT CAVOK
BECMG 0304/0306 33010KT
TEMPO 0312/0315 SCT040
BECMG 0314/0315 18010KT
BECMG 0319/0321 VRB03KT

Example: see airport list